createdAt,value
2019-06-08T00:00:47.507Z,95444.49
2019-06-08T00:03:14.850Z,95437.34
2019-06-08T00:05:40.406Z,95437.94
2019-06-08T00:08:06.829Z,95439.23
2019-06-08T00:10:33.166Z,95441.55
2019-06-08T00:12:59.494Z,95437.58
2019-06-08T00:15:25.855Z,95432.98
2019-06-08T00:17:52.207Z,95433.11
2019-06-08T00:20:19.649Z,95430.89
2019-06-08T00:22:44.905Z,95433.57
2019-06-08T00:25:11.267Z,95432.64
2019-06-08T00:27:37.718Z,95434.63
2019-06-08T00:30:03.986Z,95436.37
2019-06-08T00:32:30.313Z,95436.02
2019-06-08T00:34:56.743Z,95436.75
2019-06-08T00:37:22.998Z,95430.16
2019-06-08T00:39:49.335Z,95425.23
2019-06-08T00:42:17.020Z,95427.58
2019-06-08T00:44:42.047Z,95421.13
2019-06-08T00:47:08.385Z,95422.19
2019-06-08T00:49:35.929Z,95417.85
2019-06-08T00:52:01.036Z,95419.24
2019-06-08T00:54:27.408Z,95417.12
2019-06-08T00:56:53.787Z,95416.43
2019-06-08T00:59:20.152Z,95423.70
2019-06-08T01:01:46.498Z,95419.83
2019-06-08T01:04:12.835Z,95413.84
2019-06-08T01:06:39.286Z,95410.54
2019-06-08T01:09:05.613Z,95405.38
2019-06-08T01:11:32.049Z,95400.81
2019-06-08T01:13:58.441Z,95404.59
2019-06-08T01:16:25.064Z,95399.53
2019-06-08T01:18:51.150Z,95407.27
2019-06-08T01:21:17.496Z,95407.39
2019-06-08T01:23:43.848Z,95410.77
2019-06-08T01:28:36.541Z,95404.91
2019-06-08T01:31:02.892Z,95404.55
2019-06-08T01:33:29.224Z,95401.64
2019-06-08T01:35:55.576Z,95407.13
2019-06-08T01:38:22.938Z,95406.06
2019-06-08T01:40:48.333Z,95404.44
2019-06-08T01:43:14.628Z,95410.30
2019-06-08T01:45:40.978Z,95415.09
2019-06-08T01:48:19.294Z,95416.97
2019-06-08T01:50:33.781Z,95416.14
2019-06-08T01:53:00.105Z,95418.48
2019-06-08T01:55:27.049Z,95420.47
2019-06-08T01:57:52.817Z,95424.57
2019-06-08T02:00:29.883Z,95431.23
2019-06-08T02:02:45.496Z,95427.00
2019-06-08T02:05:11.927Z,95431.47
2019-06-08T02:07:38.355Z,95429.57
2019-06-08T02:10:04.648Z,95430.98
2019-06-08T02:12:31.196Z,95438.67
2019-06-08T02:14:57.353Z,95434.25
2019-06-08T02:17:23.699Z,95433.52
2019-06-08T02:19:50.087Z,95436.23
2019-06-08T02:22:16.429Z,95433.97
2019-06-08T02:24:42.760Z,95434.33
2019-06-08T02:27:09.095Z,95419.33
2019-06-08T02:29:35.801Z,95425.41
2019-06-08T02:32:01.844Z,95424.11
2019-06-08T02:34:28.427Z,95421.30
2019-06-08T02:36:54.513Z,95421.30
2019-06-08T02:39:20.838Z,95418.81
2019-06-08T02:41:47.172Z,95414.03
2019-06-08T02:44:13.517Z,95420.56
2019-06-08T02:46:40.423Z,95420.37
2019-06-08T02:49:06.230Z,95418.33
2019-06-08T02:51:34.347Z,95423.23
2019-06-08T02:53:58.904Z,95421.86
2019-06-08T02:56:25.227Z,95430.05
2019-06-08T02:58:51.586Z,95417.98
2019-06-08T03:01:17.921Z,95419.61
2019-06-08T03:03:44.273Z,95419.19
2019-06-08T03:06:10.612Z,95425.99
2019-06-08T03:08:39.210Z,95427.64
2019-06-08T03:11:03.319Z,95428.57
2019-06-08T03:13:31.131Z,95437.00
2019-06-08T03:15:56.017Z,95434.79
2019-06-08T03:18:22.392Z,95438.66
2019-06-08T03:20:48.925Z,95440.19
2019-06-08T03:23:15.255Z,95436.31
2019-06-08T03:25:51.773Z,95435.40
2019-06-08T03:28:08.086Z,95436.83
2019-06-08T03:30:38.924Z,95441.77
2019-06-08T03:35:27.158Z,95435.19
2019-06-08T03:37:53.433Z,95434.41
2019-06-08T03:40:19.755Z,95438.05
2019-06-08T03:42:46.115Z,95439.67
2019-06-08T03:45:12.484Z,95447.68
2019-06-08T03:47:39.658Z,95449.30
2019-06-08T03:50:05.158Z,95451.09
2019-06-08T03:52:31.494Z,95445.02
2019-06-08T03:54:57.840Z,95451.23
2019-06-08T03:57:24.204Z,95448.91
2019-06-08T03:59:50.564Z,95452.09
2019-06-08T04:02:16.902Z,95454.89
2019-06-08T04:04:43.825Z,95458.67
2019-06-08T04:09:37.647Z,95461.26
2019-06-08T04:12:02.320Z,95463.23
2019-06-08T04:14:28.691Z,95460.89
2019-06-08T04:16:54.981Z,95463.52
2019-06-08T04:19:21.367Z,95466.79
2019-06-08T04:21:47.723Z,95461.30
2019-06-08T04:24:14.102Z,95464.28
2019-06-08T04:26:40.643Z,95461.34
2019-06-08T04:29:06.785Z,95460.28
2019-06-08T04:31:33.136Z,95461.48
2019-06-08T04:33:59.466Z,95463.36
2019-06-08T04:36:25.840Z,95462.77
2019-06-08T04:38:52.185Z,95464.88
2019-06-08T04:41:18.523Z,95464.89
2019-06-08T04:43:45.454Z,95469.58
2019-06-08T04:46:11.270Z,95467.33
2019-06-08T04:48:38.657Z,95468.39
2019-06-08T04:51:03.993Z,95468.06
2019-06-08T04:53:30.331Z,95462.07
2019-06-08T04:55:56.642Z,95465.58
2019-06-08T04:58:23.027Z,95469.81
2019-06-08T05:00:50.815Z,95470.73
2019-06-08T05:03:15.690Z,95473.55
2019-06-08T05:05:43.337Z,95474.61
2019-06-08T05:08:08.468Z,95476.17
2019-06-08T05:10:34.833Z,95473.59
2019-06-08T05:13:01.200Z,95474.64
2019-06-08T05:15:27.497Z,95469.81
2019-06-08T05:17:53.860Z,95474.19
2019-06-08T05:20:20.189Z,95470.54
2019-06-08T05:22:47.612Z,95470.91
2019-06-08T05:25:12.848Z,95476.30
2019-06-08T05:27:39.418Z,95476.06
2019-06-08T05:30:08.823Z,95487.91
2019-06-08T05:32:31.983Z,95485.70
2019-06-08T05:34:58.273Z,95486.63
2019-06-08T05:37:24.604Z,95482.28
2019-06-08T05:39:51.114Z,95479.96
2019-06-08T05:42:17.275Z,95478.08
2019-06-08T05:44:43.672Z,95485.69
2019-06-08T05:47:10.046Z,95484.66
2019-06-08T05:49:36.401Z,95493.69
2019-06-08T05:52:02.811Z,95485.11
2019-06-08T05:54:29.101Z,95487.23
2019-06-08T05:56:55.465Z,95492.77
2019-06-08T05:59:21.797Z,95498.05
2019-06-08T06:01:48.660Z,95499.61
2019-06-08T06:04:14.463Z,95500.40
2019-06-08T06:06:40.858Z,95499.94
2019-06-08T06:09:07.249Z,95498.08
2019-06-08T06:11:33.687Z,95505.47
2019-06-08T06:13:59.983Z,95502.28
2019-06-08T06:16:26.334Z,95506.52
2019-06-08T06:18:52.673Z,95509.92
2019-06-08T06:21:19.009Z,95504.66
2019-06-08T06:23:45.364Z,95510.27
2019-06-08T06:28:38.047Z,95515.22
2019-06-08T06:31:04.376Z,95511.10
2019-06-08T06:33:30.727Z,95517.22
2019-06-08T06:35:57.088Z,95509.69
2019-06-08T06:40:50.078Z,95506.63
2019-06-08T06:43:16.191Z,95510.98
2019-06-08T06:45:43.771Z,95515.33
2019-06-08T06:48:08.932Z,95510.63
2019-06-08T06:50:35.330Z,95512.97
2019-06-08T06:53:01.744Z,95506.05
2019-06-08T06:55:28.078Z,95506.15
2019-06-08T06:57:54.500Z,95506.15
2019-06-08T07:00:20.776Z,95505.65
2019-06-08T07:02:47.617Z,95500.15
2019-06-08T07:05:13.473Z,95501.43
2019-06-08T07:07:39.848Z,95501.43
2019-06-08T07:10:06.164Z,95498.14
2019-06-08T07:12:32.508Z,95504.02
2019-06-08T07:14:58.884Z,95502.52
2019-06-08T07:17:25.216Z,95506.84
2019-06-08T07:19:52.610Z,95503.09
2019-06-08T07:22:17.874Z,95498.63
2019-06-08T07:24:44.236Z,95498.63
2019-06-08T07:27:10.571Z,95503.45
2019-06-08T07:29:36.938Z,95499.81
2019-06-08T07:32:03.261Z,95497.80
2019-06-08T07:34:29.597Z,95497.47
2019-06-08T07:36:55.953Z,95494.05
2019-06-08T07:39:22.326Z,95498.53
2019-06-08T07:41:50.157Z,95473.75
2019-06-08T07:44:14.983Z,95473.75
2019-06-08T07:46:41.318Z,95487.48
2019-06-08T07:49:07.647Z,95488.64
2019-06-08T07:51:34.042Z,95483.85
2019-06-08T07:54:00.441Z,95483.95
2019-06-08T07:56:26.790Z,95483.95
2019-06-08T07:58:53.323Z,95486.90
2019-06-08T08:01:32.911Z,95479.63
2019-06-08T08:03:45.833Z,95482.78
2019-06-08T08:06:12.226Z,95485.36
2019-06-08T08:08:38.564Z,95488.69
2019-06-08T08:11:04.938Z,95485.02
2019-06-08T08:13:31.294Z,95484.31
2019-06-08T08:16:00.264Z,95482.33
2019-06-08T08:18:24.009Z,95486.67
2019-06-08T08:20:51.091Z,95483.86
2019-06-08T08:23:17.334Z,95480.82
2019-06-08T08:25:43.045Z,95485.50
2019-06-08T08:28:09.499Z,95481.52
2019-06-08T08:30:37.703Z,95483.28
2019-06-08T08:35:28.503Z,95478.67
2019-06-08T08:37:58.038Z,95481.27
2019-06-08T08:40:21.191Z,95479.02
2019-06-08T08:42:48.303Z,95475.01
2019-06-08T08:45:13.851Z,95480.65
2019-06-08T08:47:40.179Z,95474.79
2019-06-08T08:50:07.404Z,95468.56
2019-06-08T08:52:37.197Z,95472.21
2019-06-08T08:55:00.891Z,95472.08
2019-06-08T08:57:25.608Z,95467.25
2019-06-08T08:59:54.589Z,95468.08
2019-06-08T09:02:21.235Z,95469.73
2019-06-08T09:04:44.609Z,95469.51
2019-06-08T09:07:11.069Z,95466.33
2019-06-08T09:09:38.635Z,95464.31
2019-06-08T09:12:04.509Z,95466.44
2019-06-08T09:14:30.000Z,95467.13
2019-06-08T09:16:58.527Z,95466.77
2019-06-08T09:19:22.724Z,95468.42
2019-06-08T09:21:49.030Z,95467.00
2019-06-08T09:24:15.409Z,95461.27
2019-06-08T09:26:41.809Z,95458.89
2019-06-08T09:29:11.065Z,95457.50
2019-06-08T09:31:34.419Z,95459.26
2019-06-08T09:34:10.507Z,95457.47
2019-06-08T09:36:28.637Z,95454.09
2019-06-08T09:38:57.590Z,95451.15
2019-06-08T09:41:19.893Z,95458.77
2019-06-08T09:43:48.585Z,95449.50
2019-06-08T09:46:12.572Z,95450.42
2019-06-08T09:51:06.403Z,95446.78
2019-06-08T09:53:37.098Z,95443.28
2019-06-08T09:56:01.926Z,95443.14
2019-06-08T09:58:24.282Z,95436.23
2019-06-08T10:00:50.654Z,95433.38
2019-06-08T10:03:18.611Z,95438.41
2019-06-08T10:05:43.372Z,95442.97
2019-06-08T10:08:09.838Z,95447.21
2019-06-08T10:10:36.040Z,95443.10
2019-06-08T10:13:06.200Z,95437.67
2019-06-08T10:15:28.721Z,95442.83
2019-06-08T10:17:56.782Z,95444.58
2019-06-08T10:20:21.423Z,95439.33
2019-06-08T10:22:49.954Z,95440.84
2019-06-08T10:25:14.097Z,95442.09
2019-06-08T10:27:42.424Z,95433.80
2019-06-08T10:30:09.794Z,95433.55
2019-06-08T10:32:33.178Z,95434.36
2019-06-08T10:35:02.212Z,95433.98
2019-06-08T10:37:28.206Z,95435.50
2019-06-08T10:39:52.211Z,95430.23
2019-06-08T10:42:18.543Z,95432.12
2019-06-08T10:47:12.078Z,95425.16
2019-06-08T10:49:38.463Z,95425.53
2019-06-08T10:52:05.550Z,95428.45
2019-06-08T10:54:30.348Z,95418.86
2019-06-08T10:56:59.692Z,95423.56
2019-06-08T10:59:23.070Z,95410.63
2019-06-08T11:01:49.402Z,95410.97
2019-06-08T11:04:15.720Z,95407.34
2019-06-08T11:06:42.077Z,95402.28
2019-06-08T11:09:12.607Z,95402.87
2019-06-08T11:11:34.754Z,95399.32
2019-06-08T11:14:03.782Z,95405.67
2019-06-08T11:18:53.864Z,95398.86
2019-06-08T11:21:20.158Z,95392.96
2019-06-08T11:24:04.558Z,95387.84
2019-06-08T11:26:19.787Z,95385.83
2019-06-08T11:28:39.251Z,95387.25
2019-06-08T11:31:08.435Z,95385.27
2019-06-08T11:33:31.914Z,95383.63
2019-06-08T11:36:02.937Z,95382.56
2019-06-08T11:38:24.655Z,95376.43
2019-06-08T11:40:50.985Z,95379.61
2019-06-08T11:43:18.354Z,95378.09
2019-06-08T11:45:43.663Z,95372.93
2019-06-08T11:48:10.965Z,95371.64
2019-06-08T11:50:39.052Z,95372.10
2019-06-08T11:53:03.999Z,95370.77
2019-06-08T11:55:29.222Z,95384.12
2019-06-08T11:57:55.739Z,95375.09
2019-06-08T12:00:27.408Z,95377.66
2019-06-08T12:02:48.659Z,95361.80
2019-06-08T12:05:14.871Z,95372.59
2019-06-08T12:07:41.229Z,95375.41
2019-06-08T12:10:09.661Z,95379.65
2019-06-08T12:12:34.014Z,95375.07
2019-06-08T12:15:00.335Z,95370.25
2019-06-08T12:17:27.648Z,95370.59
2019-06-08T12:19:53.115Z,95367.53
2019-06-08T12:22:21.750Z,95361.69
2019-06-08T12:24:45.811Z,95369.77
2019-06-08T12:27:24.815Z,95363.33
2019-06-08T12:29:38.682Z,95361.22
2019-06-08T12:32:07.740Z,95356.16
2019-06-08T12:34:31.370Z,95360.99
2019-06-08T12:36:58.343Z,95362.59
2019-06-08T12:39:24.105Z,95354.98
2019-06-08T12:41:50.456Z,95357.57
2019-06-08T12:44:19.659Z,95348.62
2019-06-08T12:46:43.175Z,95351.80
2019-06-08T12:49:11.218Z,95350.84
2019-06-08T12:51:35.896Z,95361.64
2019-06-08T12:54:02.241Z,95348.27
2019-06-08T12:56:28.836Z,95352.63
2019-06-08T12:58:54.884Z,95357.66
2019-06-08T13:01:21.237Z,95350.75
2019-06-08T13:03:48.426Z,95348.63
2019-06-08T13:06:14.142Z,95350.98
2019-06-08T13:08:40.420Z,95351.87
2019-06-08T13:11:08.161Z,95346.90
2019-06-08T13:13:33.051Z,95347.95
2019-06-08T13:15:59.366Z,95352.73
2019-06-08T13:18:25.730Z,95348.88
2019-06-08T13:20:52.062Z,95342.88
2019-06-08T13:23:20.019Z,95342.05
2019-06-08T13:25:44.754Z,95339.70
2019-06-08T13:28:15.186Z,95342.05
2019-06-08T13:30:38.996Z,95331.66
2019-06-08T13:33:03.798Z,95331.06
2019-06-08T13:35:30.667Z,95336.67
2019-06-08T13:37:57.591Z,95335.98
2019-06-08T13:40:23.696Z,95337.13
2019-06-08T13:42:51.418Z,95333.64
2019-06-08T13:45:18.804Z,95343.09
2019-06-08T13:47:43.985Z,95341.49
2019-06-08T13:50:11.003Z,95330.73
2019-06-08T13:52:38.249Z,95332.70
2019-06-08T13:55:03.143Z,95329.39
2019-06-08T13:57:29.470Z,95336.20
2019-06-08T13:59:57.796Z,95329.16
2019-06-08T14:02:25.026Z,95337.34
2019-06-08T14:04:49.191Z,95336.78
2019-06-08T14:07:18.197Z,95328.01
2019-06-08T14:09:41.313Z,95328.09
2019-06-08T14:12:07.834Z,95323.23
2019-06-08T14:14:34.139Z,95321.44
2019-06-08T14:17:00.470Z,95327.18
2019-06-08T14:19:29.678Z,95327.16
2019-06-08T14:21:53.172Z,95331.64
2019-06-08T14:24:25.736Z,95332.80
2019-06-08T14:26:45.860Z,95330.59
2019-06-08T14:29:12.356Z,95334.69
2019-06-08T14:31:38.691Z,95333.84
2019-06-08T14:36:31.363Z,95330.13
2019-06-08T14:39:01.873Z,95328.23
2019-06-08T14:41:24.636Z,95329.98
2019-06-08T14:43:50.819Z,95326.86
2019-06-08T14:46:19.326Z,95324.75
2019-06-08T14:48:45.165Z,95328.25
2019-06-08T14:51:09.437Z,95319.92
2019-06-08T14:53:35.790Z,95324.83
2019-06-08T14:56:08.496Z,95319.45
2019-06-08T14:58:33.618Z,95318.99
2019-06-08T15:00:55.043Z,95317.88
2019-06-08T15:03:21.250Z,95326.86
2019-06-08T15:05:49.815Z,95323.34
2019-06-08T15:08:13.978Z,95328.69
2019-06-08T15:10:40.316Z,95324.30
2019-06-08T15:13:07.723Z,95328.33
2019-06-08T15:15:32.992Z,95330.89
2019-06-08T15:20:26.166Z,95326.10
2019-06-08T15:22:52.035Z,95323.64
2019-06-08T15:25:18.591Z,95320.80
2019-06-08T15:27:44.738Z,95324.89
2019-06-08T15:30:11.069Z,95321.87
2019-06-08T15:32:38.711Z,95319.39
2019-06-08T15:35:03.866Z,95324.08
2019-06-08T15:37:31.139Z,95322.31
2019-06-08T15:39:58.435Z,95320.80
2019-06-08T15:42:24.206Z,95321.63
2019-06-08T15:44:49.202Z,95320.90
2019-06-08T15:47:17.801Z,95320.45
2019-06-08T15:49:41.871Z,95319.61
2019-06-08T15:54:37.642Z,95324.20
2019-06-08T15:57:00.884Z,95321.36
2019-06-08T15:59:31.194Z,95323.03
2019-06-08T16:01:53.752Z,95314.92
2019-06-08T16:04:19.915Z,95318.09
2019-06-08T16:06:46.323Z,95313.64
2019-06-08T16:09:12.628Z,95315.19
2019-06-08T16:11:38.938Z,95315.66
2019-06-08T16:14:05.295Z,95312.03
2019-06-08T16:16:31.666Z,95319.30
2019-06-08T16:18:58.005Z,95316.48
2019-06-08T16:21:25.318Z,95318.03
2019-06-08T16:23:50.666Z,95329.06
2019-06-08T16:26:16.998Z,95321.43
2019-06-08T16:28:43.329Z,95315.58
2019-06-08T16:31:09.672Z,95314.40
2019-06-08T16:33:36.018Z,95320.16
2019-06-08T16:36:02.352Z,95318.61
2019-06-08T16:40:55.022Z,95323.56
2019-06-08T16:43:21.435Z,95325.67
2019-06-08T16:45:47.715Z,95326.82
2019-06-08T16:48:14.041Z,95325.30
2019-06-08T16:50:40.437Z,95324.16
2019-06-08T16:53:06.769Z,95326.29
2019-06-08T16:55:33.975Z,95330.66
2019-06-08T16:57:59.453Z,95336.28
2019-06-08T17:00:37.163Z,95336.04
2019-06-08T17:02:52.196Z,95331.13
2019-06-08T17:05:18.642Z,95334.03
2019-06-08T17:07:45.040Z,95336.05
2019-06-08T17:10:11.453Z,95344.61
2019-06-08T17:12:38.996Z,95343.43
2019-06-08T17:15:04.065Z,95340.47
2019-06-08T17:17:30.385Z,95343.64
2019-06-08T17:19:56.756Z,95344.93
2019-06-08T17:22:23.078Z,95346.59
2019-06-08T17:24:49.417Z,95348.70
2019-06-08T17:27:26.434Z,95350.45
2019-06-08T17:29:42.110Z,95352.34
2019-06-08T17:32:08.439Z,95355.14
2019-06-08T17:34:36.260Z,95352.78
2019-06-08T17:37:01.115Z,95348.11
2019-06-08T17:39:29.376Z,95345.77
2019-06-08T17:41:53.813Z,95340.85
2019-06-08T17:44:20.102Z,95346.59
2019-06-08T17:46:46.468Z,95345.53
2019-06-08T17:49:15.094Z,95337.58
2019-06-08T17:51:41.896Z,95339.69
2019-06-08T17:54:07.938Z,95340.16
2019-06-08T17:56:35.113Z,95343.09
2019-06-08T17:59:00.641Z,95341.22
2019-06-08T18:01:26.974Z,95344.86
2019-06-08T18:03:53.303Z,95343.47
2019-06-08T18:06:19.692Z,95340.20
2019-06-08T18:08:48.048Z,95347.02
2019-06-08T18:11:12.400Z,95348.40
2019-06-08T18:13:42.155Z,95349.50
2019-06-08T18:16:05.117Z,95342.00
2019-06-08T18:18:31.491Z,95341.63
2019-06-08T18:20:58.134Z,95352.77
2019-06-08T18:23:24.135Z,95348.68
2019-06-08T18:25:50.474Z,95345.17
2019-06-08T18:28:17.335Z,95343.30
2019-06-08T18:30:44.713Z,95355.16
2019-06-08T18:33:09.478Z,95364.20
2019-06-08T18:35:39.422Z,95366.77
2019-06-08T18:38:02.193Z,95378.84
2019-06-08T18:40:28.563Z,95387.53
2019-06-08T18:42:57.471Z,95388.46
2019-06-08T18:45:21.212Z,95393.62
2019-06-08T18:47:48.475Z,95406.52
2019-06-08T18:50:13.881Z,95416.37
2019-06-08T18:55:08.320Z,95427.61
2019-06-08T18:57:32.871Z,95427.65
2019-06-08T18:59:59.203Z,95431.16
2019-06-08T19:02:26.480Z,95433.51
2019-06-08T19:04:51.878Z,95436.09
2019-06-08T19:07:18.225Z,95435.86
2019-06-08T19:09:46.010Z,95432.12
2019-06-08T19:12:10.930Z,95435.50
2019-06-08T19:14:37.853Z,95434.47
2019-06-08T19:17:04.137Z,95435.63
2019-06-08T19:19:31.535Z,95439.50
2019-06-08T19:21:57.998Z,95438.45
2019-06-08T19:24:22.740Z,95447.39
2019-06-08T19:26:49.144Z,95446.92
2019-06-08T19:29:19.097Z,95453.47
2019-06-08T19:31:43.754Z,95456.05
2019-06-08T19:34:08.237Z,95464.97
2019-06-08T19:36:34.591Z,95466.13
2019-06-08T19:39:00.910Z,95467.56
2019-06-08T19:41:28.338Z,95470.73
2019-06-08T19:43:54.823Z,95475.21
2019-06-08T19:46:19.961Z,95474.84
2019-06-08T19:48:53.307Z,95477.06
2019-06-08T19:51:12.721Z,95477.06
2019-06-08T19:53:43.366Z,95475.08
2019-06-08T19:56:07.674Z,95479.30
2019-06-08T19:58:31.785Z,95487.98
2019-06-08T20:00:58.757Z,95478.16
2019-06-08T20:03:24.603Z,95471.13
2019-06-08T20:05:52.153Z,95474.44
2019-06-08T20:08:17.546Z,95477.48
2019-06-08T20:10:43.511Z,95484.72
2019-06-08T20:13:09.844Z,95486.83
2019-06-08T20:15:43.551Z,95481.08
2019-06-08T20:18:02.645Z,95481.22
2019-06-08T20:20:28.968Z,95486.38
2019-06-08T20:22:55.330Z,95491.24
2019-06-08T20:25:21.769Z,95485.62
2019-06-08T20:27:50.364Z,95481.05
2019-06-08T20:30:14.444Z,95487.14
2019-06-08T20:32:40.772Z,95487.44
2019-06-08T20:35:07.971Z,95490.78
2019-06-08T20:37:33.486Z,95489.59
2019-06-08T20:40:10.153Z,95480.46
2019-06-08T20:42:28.330Z,95479.97
2019-06-08T20:44:53.178Z,95480.56
2019-06-08T20:47:20.709Z,95479.64
2019-06-08T20:49:46.918Z,95484.47
2019-06-08T20:52:11.512Z,95481.52
2019-06-08T20:54:37.849Z,95482.91
2019-06-08T20:57:04.193Z,95480.93
2019-06-08T20:59:34.021Z,95482.35
2019-06-08T21:01:58.869Z,95486.45
2019-06-08T21:04:23.286Z,95479.17
2019-06-08T21:06:51.217Z,95479.17
2019-06-08T21:09:18.463Z,95490.19
2019-06-08T21:11:42.340Z,95491.02
2019-06-08T21:14:08.668Z,95485.39
2019-06-08T21:16:35.024Z,95493.50
2019-06-08T21:19:01.396Z,95491.98
2019-06-08T21:21:28.312Z,95495.95
2019-06-08T21:23:55.565Z,95485.62
2019-06-08T21:26:20.392Z,95486.82
2019-06-08T21:28:49.843Z,95482.36
2019-06-08T21:31:13.115Z,95486.13
2019-06-08T21:33:39.457Z,95484.02
2019-06-08T21:36:08.586Z,95485.53
2019-06-08T21:38:32.140Z,95488.81
2019-06-08T21:41:02.527Z,95487.75
2019-06-08T21:43:24.844Z,95494.94
2019-06-08T21:45:52.071Z,95487.88
2019-06-08T21:48:17.537Z,95485.77
2019-06-08T21:50:43.874Z,95485.86
2019-06-08T21:53:10.230Z,95486.23
2019-06-08T21:55:37.983Z,95484.80
2019-06-08T21:58:02.867Z,95484.34
2019-06-08T22:00:39.145Z,95477.78
2019-06-08T22:02:58.466Z,95476.37
2019-06-08T22:05:21.871Z,95478.12
2019-06-08T22:07:48.241Z,95476.03
2019-06-08T22:10:14.555Z,95480.14
2019-06-08T22:12:40.882Z,95472.86
2019-06-08T22:15:07.573Z,95473.55
2019-06-08T22:17:33.660Z,95468.86
2019-06-08T22:20:01.006Z,95468.06
2019-06-08T22:22:26.273Z,95465.34
2019-06-08T22:24:53.453Z,95466.87
2019-06-08T22:27:18.998Z,95460.65
2019-06-08T22:29:45.347Z,95457.50
2019-06-08T22:32:11.692Z,95460.65
2019-06-08T22:34:38.078Z,95461.38
2019-06-08T22:37:04.417Z,95461.94
2019-06-08T22:39:30.769Z,95464.89
2019-06-08T22:41:58.481Z,95470.97
2019-06-08T22:44:23.441Z,95470.51
2019-06-08T22:46:49.781Z,95467.93
2019-06-08T22:49:18.481Z,95466.64
2019-06-08T22:51:42.555Z,95471.23
2019-06-08T22:54:08.882Z,95471.80
2019-06-08T22:56:37.171Z,95478.25
2019-06-08T22:59:04.742Z,95474.37
2019-06-08T23:01:28.021Z,95480.84
2019-06-08T23:03:56.148Z,95481.56
2019-06-08T23:06:20.656Z,95476.50
2019-06-08T23:08:48.029Z,95476.97
2019-06-08T23:11:13.376Z,95486.92
2019-06-08T23:13:39.736Z,95485.53
2019-06-08T23:16:08.575Z,95488.70
2019-06-08T23:18:32.449Z,95485.90
2019-06-08T23:21:01.592Z,95489.17
2019-06-08T23:23:27.174Z,95490.92
2019-06-08T23:25:51.598Z,95482.72
2019-06-08T23:28:18.242Z,95481.06
2019-06-08T23:30:44.265Z,95477.56
2019-06-08T23:33:11.730Z,95476.37
2019-06-08T23:36:07.999Z,95477.09
2019-06-08T23:38:03.463Z,95473.69
2019-06-08T23:40:29.790Z,95473.69
2019-06-08T23:42:58.494Z,95474.15
2019-06-08T23:45:22.527Z,95476.03
2019-06-08T23:47:48.855Z,95475.67
2019-06-08T23:50:17.593Z,95476.50
2019-06-08T23:55:10.501Z,95468.63
2019-06-08T23:57:34.285Z,95474.25
